sensor_id;sensor_type;location;lat;lon;timestamp;P1;durP1;ratioP1;P2;durP2;ratioP2
17854;SDS011;9053;53.358;6.382;2022-10-16T00:00:41;3.75;;;1.60;;
17854;SDS011;9053;53.358;6.382;2022-10-16T00:03:11;3.60;;;1.60;;
17854;SDS011;9053;53.358;6.382;2022-10-16T00:05:42;2.97;;;1.80;;
17854;SDS011;9053;53.358;6.382;2022-10-16T00:08:12;4.78;;;1.60;;
17854;SDS011;9053;53.358;6.382;2022-10-16T00:10:42;4.18;;;1.95;;
17854;SDS011;9053;53.358;6.382;2022-10-16T00:13:11;2.95;;;1.70;;
17854;SDS011;9053;53.358;6.382;2022-10-16T00:15:46;5.70;;;1.70;;
17854;SDS011;9053;53.358;6.382;2022-10-16T00:18:15;4.13;;;2.03;;
17854;SDS011;9053;53.358;6.382;2022-10-16T00:20:45;3.38;;;1.58;;
17854;SDS011;9053;53.358;6.382;2022-10-16T00:23:15;5.70;;;1.92;;
17854;SDS011;9053;53.358;6.382;2022-10-16T00:25:45;3.47;;;2.13;;
17854;SDS011;9053;53.358;6.382;2022-10-16T00:28:23;3.83;;;1.73;;
17854;SDS011;9053;53.358;6.382;2022-10-16T00:30:55;2.77;;;1.40;;
17854;SDS011;9053;53.358;6.382;2022-10-16T00:33:25;4.75;;;1.67;;
17854;SDS011;9053;53.358;6.382;2022-10-16T00:35:57;3.90;;;1.67;;
17854;SDS011;9053;53.358;6.382;2022-10-16T00:38:27;3.57;;;1.50;;
17854;SDS011;9053;53.358;6.382;2022-10-16T00:40:56;3.30;;;1.70;;
17854;SDS011;9053;53.358;6.382;2022-10-16T00:43:34;3.93;;;1.60;;
17854;SDS011;9053;53.358;6.382;2022-10-16T00:46:13;4.40;;;1.60;;
17854;SDS011;9053;53.358;6.382;2022-10-16T00:48:49;3.87;;;1.60;;
17854;SDS011;9053;53.358;6.382;2022-10-16T00:51:21;4.72;;;1.63;;
17854;SDS011;9053;53.358;6.382;2022-10-16T00:53:54;5.93;;;1.87;;
17854;SDS011;9053;53.358;6.382;2022-10-16T00:56:25;3.25;;;1.48;;
17854;SDS011;9053;53.358;6.382;2022-10-16T00:58:55;3.30;;;1.63;;
17854;SDS011;9053;53.358;6.382;2022-10-16T01:01:28;4.15;;;1.70;;
17854;SDS011;9053;53.358;6.382;2022-10-16T01:03:58;3.83;;;2.05;;
17854;SDS011;9053;53.358;6.382;2022-10-16T01:06:29;2.27;;;1.60;;
17854;SDS011;9053;53.358;6.382;2022-10-16T01:09:07;6.82;;;1.75;;
17854;SDS011;9053;53.358;6.382;2022-10-16T01:11:49;2.97;;;1.43;;
17854;SDS011;9053;53.358;6.382;2022-10-16T01:14:32;3.23;;;1.23;;
17854;SDS011;9053;53.358;6.382;2022-10-16T01:17:12;4.38;;;2.08;;
17854;SDS011;9053;53.358;6.382;2022-10-16T01:19:56;4.47;;;1.60;;
17854;SDS011;9053;53.358;6.382;2022-10-16T01:22:37;3.60;;;1.30;;
17854;SDS011;9053;53.358;6.382;2022-10-16T01:25:14;1.58;;;1.23;;
17854;SDS011;9053;53.358;6.382;2022-10-16T01:27:54;3.90;;;1.80;;
17854;SDS011;9053;53.358;6.382;2022-10-16T01:30:27;3.40;;;1.30;;
17854;SDS011;9053;53.358;6.382;2022-10-16T01:33:02;3.10;;;1.70;;
17854;SDS011;9053;53.358;6.382;2022-10-16T01:35:38;2.83;;;1.23;;
17854;SDS011;9053;53.358;6.382;2022-10-16T01:38:12;3.33;;;1.63;;
17854;SDS011;9053;53.358;6.382;2022-10-16T01:40:47;5.18;;;1.52;;
17854;SDS011;9053;53.358;6.382;2022-10-16T01:43:24;4.43;;;1.40;;
17854;SDS011;9053;53.358;6.382;2022-10-16T01:45:58;1.77;;;1.10;;
17854;SDS011;9053;53.358;6.382;2022-10-16T01:48:29;3.10;;;1.35;;
17854;SDS011;9053;53.358;6.382;2022-10-16T01:51:03;4.07;;;1.43;;
17854;SDS011;9053;53.358;6.382;2022-10-16T01:53:36;2.58;;;1.33;;
17854;SDS011;9053;53.358;6.382;2022-10-16T01:56:08;3.33;;;1.53;;
17854;SDS011;9053;53.358;6.382;2022-10-16T01:58:45;3.35;;;1.65;;
17854;SDS011;9053;53.358;6.382;2022-10-16T02:01:19;2.60;;;1.38;;
17854;SDS011;9053;53.358;6.382;2022-10-16T02:03:51;3.60;;;1.70;;
17854;SDS011;9053;53.358;6.382;2022-10-16T02:06:25;3.20;;;1.50;;
17854;SDS011;9053;53.358;6.382;2022-10-16T02:08:55;4.50;;;1.40;;
17854;SDS011;9053;53.358;6.382;2022-10-16T02:11:25;5.00;;;1.63;;
17854;SDS011;9053;53.358;6.382;2022-10-16T02:13:58;4.68;;;1.58;;
17854;SDS011;9053;53.358;6.382;2022-10-16T02:16:32;4.20;;;1.60;;
17854;SDS011;9053;53.358;6.382;2022-10-16T02:19:03;5.13;;;2.08;;
17854;SDS011;9053;53.358;6.382;2022-10-16T02:21:35;3.88;;;1.83;;
17854;SDS011;9053;53.358;6.382;2022-10-16T02:24:13;5.50;;;1.85;;
17854;SDS011;9053;53.358;6.382;2022-10-16T02:26:49;3.22;;;1.67;;
17854;SDS011;9053;53.358;6.382;2022-10-16T02:29:25;3.22;;;1.67;;
17854;SDS011;9053;53.358;6.382;2022-10-16T02:31:56;3.08;;;1.90;;
17854;SDS011;9053;53.358;6.382;2022-10-16T02:34:28;4.03;;;1.60;;
17854;SDS011;9053;53.358;6.382;2022-10-16T02:37:01;2.53;;;1.92;;
17854;SDS011;9053;53.358;6.382;2022-10-16T02:39:33;3.15;;;1.60;;
17854;SDS011;9053;53.358;6.382;2022-10-16T02:42:04;5.03;;;1.65;;
17854;SDS011;9053;53.358;6.382;2022-10-16T02:44:36;2.28;;;1.52;;
17854;SDS011;9053;53.358;6.382;2022-10-16T02:47:06;4.10;;;1.90;;
17854;SDS011;9053;53.358;6.382;2022-10-16T02:49:39;3.10;;;1.95;;
17854;SDS011;9053;53.358;6.382;2022-10-16T02:52:08;3.53;;;2.03;;
17854;SDS011;9053;53.358;6.382;2022-10-16T02:54:38;3.17;;;1.55;;
17854;SDS011;9053;53.358;6.382;2022-10-16T02:57:08;3.00;;;1.87;;
17854;SDS011;9053;53.358;6.382;2022-10-16T02:59:40;5.55;;;1.60;;
17854;SDS011;9053;53.358;6.382;2022-10-16T03:02:10;2.90;;;1.60;;
17854;SDS011;9053;53.358;6.382;2022-10-16T03:04:40;2.03;;;1.67;;
17854;SDS011;9053;53.358;6.382;2022-10-16T03:07:09;4.40;;;1.70;;
17854;SDS011;9053;53.358;6.382;2022-10-16T03:09:39;1.83;;;1.52;;
17854;SDS011;9053;53.358;6.382;2022-10-16T03:12:09;3.50;;;1.70;;
17854;SDS011;9053;53.358;6.382;2022-10-16T03:14:41;2.57;;;1.40;;
17854;SDS011;9053;53.358;6.382;2022-10-16T03:17:11;3.93;;;2.03;;
17854;SDS011;9053;53.358;6.382;2022-10-16T03:19:43;2.33;;;1.60;;
17854;SDS011;9053;53.358;6.382;2022-10-16T03:22:13;3.33;;;1.65;;
17854;SDS011;9053;53.358;6.382;2022-10-16T03:24:43;2.23;;;1.60;;
17854;SDS011;9053;53.358;6.382;2022-10-16T03:27:12;3.88;;;1.90;;
17854;SDS011;9053;53.358;6.382;2022-10-16T03:29:45;3.85;;;1.55;;
17854;SDS011;9053;53.358;6.382;2022-10-16T03:32:14;1.88;;;1.40;;
17854;SDS011;9053;53.358;6.382;2022-10-16T03:34:44;4.40;;;1.80;;
17854;SDS011;9053;53.358;6.382;2022-10-16T03:37:14;2.67;;;1.60;;
17854;SDS011;9053;53.358;6.382;2022-10-16T03:39:44;2.77;;;1.80;;
17854;SDS011;9053;53.358;6.382;2022-10-16T03:42:13;2.03;;;1.70;;
17854;SDS011;9053;53.358;6.382;2022-10-16T03:44:46;2.83;;;1.80;;
17854;SDS011;9053;53.358;6.382;2022-10-16T03:47:16;2.15;;;1.73;;
17854;SDS011;9053;53.358;6.382;2022-10-16T03:49:48;3.53;;;1.95;;
17854;SDS011;9053;53.358;6.382;2022-10-16T03:52:17;5.13;;;1.73;;
17854;SDS011;9053;53.358;6.382;2022-10-16T03:54:47;2.55;;;1.80;;
17854;SDS011;9053;53.358;6.382;2022-10-16T03:57:17;4.45;;;2.58;;
17854;SDS011;9053;53.358;6.382;2022-10-16T03:59:49;2.67;;;1.88;;
17854;SDS011;9053;53.358;6.382;2022-10-16T04:02:19;4.63;;;1.90;;
17854;SDS011;9053;53.358;6.382;2022-10-16T04:04:49;2.45;;;1.40;;
17854;SDS011;9053;53.358;6.382;2022-10-16T04:07:19;3.00;;;2.03;;
17854;SDS011;9053;53.358;6.382;2022-10-16T04:09:49;2.72;;;1.80;;
17854;SDS011;9053;53.358;6.382;2022-10-16T04:12:19;2.83;;;1.70;;
17854;SDS011;9053;53.358;6.382;2022-10-16T04:14:52;2.60;;;1.47;;
17854;SDS011;9053;53.358;6.382;2022-10-16T04:17:21;2.40;;;1.70;;
17854;SDS011;9053;53.358;6.382;2022-10-16T04:19:52;3.70;;;1.80;;
17854;SDS011;9053;53.358;6.382;2022-10-16T04:22:21;2.60;;;1.75;;
17854;SDS011;9053;53.358;6.382;2022-10-16T04:25:11;3.20;;;1.83;;
17854;SDS011;9053;53.358;6.382;2022-10-16T04:27:41;2.13;;;1.50;;
17854;SDS011;9053;53.358;6.382;2022-10-16T04:30:14;3.63;;;2.00;;
17854;SDS011;9053;53.358;6.382;2022-10-16T04:32:47;2.57;;;1.50;;
17854;SDS011;9053;53.358;6.382;2022-10-16T04:35:17;3.05;;;1.50;;
17854;SDS011;9053;53.358;6.382;2022-10-16T04:37:47;3.97;;;2.00;;
17854;SDS011;9053;53.358;6.382;2022-10-16T04:40:17;1.90;;;1.60;;
17854;SDS011;9053;53.358;6.382;2022-10-16T04:42:46;3.58;;;1.55;;
17854;SDS011;9053;53.358;6.382;2022-10-16T04:45:19;3.27;;;1.70;;
17854;SDS011;9053;53.358;6.382;2022-10-16T04:47:48;2.63;;;1.70;;
17854;SDS011;9053;53.358;6.382;2022-10-16T04:50:18;2.97;;;1.80;;
17854;SDS011;9053;53.358;6.382;2022-10-16T04:52:48;2.67;;;1.57;;
17854;SDS011;9053;53.358;6.382;2022-10-16T04:55:18;4.65;;;1.95;;
17854;SDS011;9053;53.358;6.382;2022-10-16T04:57:47;3.63;;;2.03;;
17854;SDS011;9053;53.358;6.382;2022-10-16T05:00:20;2.55;;;1.60;;
17854;SDS011;9053;53.358;6.382;2022-10-16T05:02:49;6.17;;;1.80;;
17854;SDS011;9053;53.358;6.382;2022-10-16T05:05:19;3.13;;;1.85;;
17854;SDS011;9053;53.358;6.382;2022-10-16T05:07:49;3.15;;;1.88;;
17854;SDS011;9053;53.358;6.382;2022-10-16T05:10:19;2.90;;;1.80;;
17854;SDS011;9053;53.358;6.382;2022-10-16T05:12:49;2.60;;;1.60;;
17854;SDS011;9053;53.358;6.382;2022-10-16T05:15:21;2.07;;;1.70;;
17854;SDS011;9053;53.358;6.382;2022-10-16T05:17:54;3.80;;;1.73;;
17854;SDS011;9053;53.358;6.382;2022-10-16T05:20:24;3.10;;;1.60;;
17854;SDS011;9053;53.358;6.382;2022-10-16T05:22:54;4.22;;;1.65;;
17854;SDS011;9053;53.358;6.382;2022-10-16T05:25:23;2.27;;;1.53;;
17854;SDS011;9053;53.358;6.382;2022-10-16T05:27:53;2.80;;;1.60;;
17854;SDS011;9053;53.358;6.382;2022-10-16T05:30:26;2.80;;;1.40;;
17854;SDS011;9053;53.358;6.382;2022-10-16T05:32:55;2.95;;;1.60;;
17854;SDS011;9053;53.358;6.382;2022-10-16T05:35:25;2.28;;;1.45;;
17854;SDS011;9053;53.358;6.382;2022-10-16T05:37:55;3.37;;;1.87;;
17854;SDS011;9053;53.358;6.382;2022-10-16T05:40:24;2.15;;;1.20;;
17854;SDS011;9053;53.358;6.382;2022-10-16T05:42:54;2.97;;;1.35;;
17854;SDS011;9053;53.358;6.382;2022-10-16T05:45:27;2.93;;;1.30;;
17854;SDS011;9053;53.358;6.382;2022-10-16T05:47:57;3.78;;;1.50;;
17854;SDS011;9053;53.358;6.382;2022-10-16T05:50:26;3.33;;;1.58;;
17854;SDS011;9053;53.358;6.382;2022-10-16T05:52:56;3.25;;;1.70;;
17854;SDS011;9053;53.358;6.382;2022-10-16T05:55:26;2.55;;;1.20;;
17854;SDS011;9053;53.358;6.382;2022-10-16T05:57:56;2.47;;;1.73;;
17854;SDS011;9053;53.358;6.382;2022-10-16T06:00:28;3.65;;;1.63;;
17854;SDS011;9053;53.358;6.382;2022-10-16T06:02:58;4.20;;;1.70;;
17854;SDS011;9053;53.358;6.382;2022-10-16T06:05:28;2.90;;;1.83;;
17854;SDS011;9053;53.358;6.382;2022-10-16T06:07:58;3.43;;;2.23;;
17854;SDS011;9053;53.358;6.382;2022-10-16T06:10:28;2.67;;;1.73;;
17854;SDS011;9053;53.358;6.382;2022-10-16T06:12:58;2.17;;;1.70;;
17854;SDS011;9053;53.358;6.382;2022-10-16T06:15:30;3.67;;;1.90;;
17854;SDS011;9053;53.358;6.382;2022-10-16T06:18:00;3.72;;;2.00;;
17854;SDS011;9053;53.358;6.382;2022-10-16T06:20:29;3.72;;;2.00;;
17854;SDS011;9053;53.358;6.382;2022-10-16T06:22:59;2.50;;;1.87;;
17854;SDS011;9053;53.358;6.382;2022-10-16T06:25:30;3.30;;;1.87;;
17854;SDS011;9053;53.358;6.382;2022-10-16T06:28:00;4.50;;;2.50;;
17854;SDS011;9053;53.358;6.382;2022-10-16T06:30:32;3.93;;;2.20;;
17854;SDS011;9053;53.358;6.382;2022-10-16T06:33:02;4.38;;;2.53;;
17854;SDS011;9053;53.358;6.382;2022-10-16T06:35:32;3.97;;;2.00;;
17854;SDS011;9053;53.358;6.382;2022-10-16T06:38:01;3.50;;;2.20;;
17854;SDS011;9053;53.358;6.382;2022-10-16T06:40:31;5.03;;;2.53;;
17854;SDS011;9053;53.358;6.382;2022-10-16T06:43:01;3.93;;;2.33;;
17854;SDS011;9053;53.358;6.382;2022-10-16T06:45:33;5.90;;;2.67;;
17854;SDS011;9053;53.358;6.382;2022-10-16T06:48:03;2.22;;;2.03;;
17854;SDS011;9053;53.358;6.382;2022-10-16T06:50:33;3.67;;;2.80;;
17854;SDS011;9053;53.358;6.382;2022-10-16T06:53:02;6.07;;;2.37;;
17854;SDS011;9053;53.358;6.382;2022-10-16T06:55:32;4.57;;;2.63;;
17854;SDS011;9053;53.358;6.382;2022-10-16T06:58:02;4.50;;;2.20;;
17854;SDS011;9053;53.358;6.382;2022-10-16T07:00:34;2.90;;;2.10;;
17854;SDS011;9053;53.358;6.382;2022-10-16T07:03:04;4.30;;;2.40;;
17854;SDS011;9053;53.358;6.382;2022-10-16T07:05:36;3.70;;;1.97;;
17854;SDS011;9053;53.358;6.382;2022-10-16T07:08:06;4.30;;;2.33;;
17854;SDS011;9053;53.358;6.382;2022-10-16T07:10:37;3.42;;;2.00;;
17854;SDS011;9053;53.358;6.382;2022-10-16T07:13:06;4.78;;;2.50;;
17854;SDS011;9053;53.358;6.382;2022-10-16T07:15:42;4.60;;;2.55;;
17854;SDS011;9053;53.358;6.382;2022-10-16T07:18:11;6.33;;;2.50;;
17854;SDS011;9053;53.358;6.382;2022-10-16T07:20:41;4.27;;;2.30;;
17854;SDS011;9053;53.358;6.382;2022-10-16T07:23:11;7.90;;;2.70;;
17854;SDS011;9053;53.358;6.382;2022-10-16T07:25:41;5.20;;;2.17;;
17854;SDS011;9053;53.358;6.382;2022-10-16T07:28:10;7.13;;;2.73;;
17854;SDS011;9053;53.358;6.382;2022-10-16T07:30:43;4.03;;;2.40;;
17854;SDS011;9053;53.358;6.382;2022-10-16T07:33:13;5.07;;;2.30;;
17854;SDS011;9053;53.358;6.382;2022-10-16T07:35:49;3.10;;;2.23;;
17854;SDS011;9053;53.358;6.382;2022-10-16T07:38:20;5.40;;;2.47;;
17854;SDS011;9053;53.358;6.382;2022-10-16T07:40:55;5.68;;;2.80;;
17854;SDS011;9053;53.358;6.382;2022-10-16T07:43:26;6.40;;;2.60;;
17854;SDS011;9053;53.358;6.382;2022-10-16T07:45:59;5.07;;;2.40;;
17854;SDS011;9053;53.358;6.382;2022-10-16T07:48:32;3.42;;;2.20;;
17854;SDS011;9053;53.358;6.382;2022-10-16T07:51:04;4.67;;;2.10;;
17854;SDS011;9053;53.358;6.382;2022-10-16T07:53:35;3.27;;;2.00;;
17854;SDS011;9053;53.358;6.382;2022-10-16T07:56:06;4.10;;;2.17;;
17854;SDS011;9053;53.358;6.382;2022-10-16T07:58:37;3.50;;;2.10;;
17854;SDS011;9053;53.358;6.382;2022-10-16T08:01:10;3.58;;;2.58;;
17854;SDS011;9053;53.358;6.382;2022-10-16T08:03:41;4.00;;;2.33;;
17854;SDS011;9053;53.358;6.382;2022-10-16T08:06:11;5.22;;;2.90;;
17854;SDS011;9053;53.358;6.382;2022-10-16T08:08:41;4.88;;;2.42;;
17854;SDS011;9053;53.358;6.382;2022-10-16T08:11:11;5.72;;;2.80;;
17854;SDS011;9053;53.358;6.382;2022-10-16T08:13:41;4.65;;;2.33;;
17854;SDS011;9053;53.358;6.382;2022-10-16T08:16:14;4.68;;;2.60;;
17854;SDS011;9053;53.358;6.382;2022-10-16T08:18:44;5.73;;;2.60;;
17854;SDS011;9053;53.358;6.382;2022-10-16T08:21:14;4.77;;;2.60;;
17854;SDS011;9053;53.358;6.382;2022-10-16T08:23:47;6.35;;;2.67;;
17854;SDS011;9053;53.358;6.382;2022-10-16T08:26:23;4.25;;;2.25;;
17854;SDS011;9053;53.358;6.382;2022-10-16T08:28:53;3.75;;;2.20;;
17854;SDS011;9053;53.358;6.382;2022-10-16T08:31:27;6.97;;;2.80;;
17854;SDS011;9053;53.358;6.382;2022-10-16T08:33:56;6.25;;;3.20;;
17854;SDS011;9053;53.358;6.382;2022-10-16T08:36:26;3.83;;;2.15;;
17854;SDS011;9053;53.358;6.382;2022-10-16T08:38:56;5.07;;;2.60;;
17854;SDS011;9053;53.358;6.382;2022-10-16T08:41:33;7.80;;;2.60;;
17854;SDS011;9053;53.358;6.382;2022-10-16T08:44:39;4.97;;;2.63;;
17854;SDS011;9053;53.358;6.382;2022-10-16T08:47:35;6.10;;;2.33;;
17854;SDS011;9053;53.358;6.382;2022-10-16T08:50:17;5.22;;;2.90;;
17854;SDS011;9053;53.358;6.382;2022-10-16T08:52:50;3.38;;;2.50;;
17854;SDS011;9053;53.358;6.382;2022-10-16T08:55:26;5.18;;;2.42;;
17854;SDS011;9053;53.358;6.382;2022-10-16T08:58:00;4.60;;;2.70;;
17854;SDS011;9053;53.358;6.382;2022-10-16T09:00:30;5.07;;;2.60;;
17854;SDS011;9053;53.358;6.382;2022-10-16T09:03:06;3.92;;;2.05;;
17854;SDS011;9053;53.358;6.382;2022-10-16T09:05:52;3.17;;;2.40;;
17854;SDS011;9053;53.358;6.382;2022-10-16T09:08:41;4.03;;;2.38;;
17854;SDS011;9053;53.358;6.382;2022-10-16T09:11:23;8.48;;;2.95;;
17854;SDS011;9053;53.358;6.382;2022-10-16T09:14:01;7.57;;;2.78;;
17854;SDS011;9053;53.358;6.382;2022-10-16T09:16:38;4.22;;;2.40;;
17854;SDS011;9053;53.358;6.382;2022-10-16T09:19:17;6.10;;;3.40;;
17854;SDS011;9053;53.358;6.382;2022-10-16T09:21:52;6.32;;;3.08;;
17854;SDS011;9053;53.358;6.382;2022-10-16T09:24:23;6.13;;;2.70;;
17854;SDS011;9053;53.358;6.382;2022-10-16T09:26:55;8.20;;;3.33;;
17854;SDS011;9053;53.358;6.382;2022-10-16T09:29:25;7.75;;;2.63;;
17854;SDS011;9053;53.358;6.382;2022-10-16T09:31:55;11.75;;;3.22;;
17854;SDS011;9053;53.358;6.382;2022-10-16T09:34:39;8.07;;;3.38;;
17854;SDS011;9053;53.358;6.382;2022-10-16T09:37:13;8.40;;;3.47;;
17854;SDS011;9053;53.358;6.382;2022-10-16T09:39:48;6.45;;;3.40;;
17854;SDS011;9053;53.358;6.382;2022-10-16T09:42:19;6.72;;;3.05;;
17854;SDS011;9053;53.358;6.382;2022-10-16T09:44:52;7.93;;;2.75;;
17854;SDS011;9053;53.358;6.382;2022-10-16T09:47:23;10.70;;;2.95;;
17854;SDS011;9053;53.358;6.382;2022-10-16T09:49:58;9.27;;;2.78;;
17854;SDS011;9053;53.358;6.382;2022-10-16T09:52:32;7.28;;;2.45;;
17854;SDS011;9053;53.358;6.382;2022-10-16T09:55:09;10.48;;;2.97;;
17854;SDS011;9053;53.358;6.382;2022-10-16T09:57:50;7.05;;;2.67;;
17854;SDS011;9053;53.358;6.382;2022-10-16T10:00:20;9.70;;;2.85;;
17854;SDS011;9053;53.358;6.382;2022-10-16T10:02:51;8.43;;;2.45;;
17854;SDS011;9053;53.358;6.382;2022-10-16T10:05:26;9.80;;;2.60;;
17854;SDS011;9053;53.358;6.382;2022-10-16T10:07:58;10.38;;;3.13;;
17854;SDS011;9053;53.358;6.382;2022-10-16T10:10:33;11.02;;;2.90;;
17854;SDS011;9053;53.358;6.382;2022-10-16T10:13:15;7.90;;;2.70;;
17854;SDS011;9053;53.358;6.382;2022-10-16T10:15:48;9.07;;;4.00;;
17854;SDS011;9053;53.358;6.382;2022-10-16T10:18:20;7.95;;;2.65;;
17854;SDS011;9053;53.358;6.382;2022-10-16T10:21:02;7.13;;;2.72;;
17854;SDS011;9053;53.358;6.382;2022-10-16T10:23:32;10.82;;;2.70;;
17854;SDS011;9053;53.358;6.382;2022-10-16T10:26:02;10.50;;;2.72;;
17854;SDS011;9053;53.358;6.382;2022-10-16T10:28:49;6.93;;;2.28;;
17854;SDS011;9053;53.358;6.382;2022-10-16T10:31:26;8.35;;;2.70;;
17854;SDS011;9053;53.358;6.382;2022-10-16T10:34:04;8.27;;;2.22;;
17854;SDS011;9053;53.358;6.382;2022-10-16T10:36:51;6.53;;;2.10;;
17854;SDS011;9053;53.358;6.382;2022-10-16T10:39:27;13.43;;;3.03;;
17854;SDS011;9053;53.358;6.382;2022-10-16T10:42:11;8.70;;;2.88;;
17854;SDS011;9053;53.358;6.382;2022-10-16T10:44:53;6.45;;;2.30;;
17854;SDS011;9053;53.358;6.382;2022-10-16T10:47:31;8.98;;;3.15;;
17854;SDS011;9053;53.358;6.382;2022-10-16T10:50:14;10.23;;;2.67;;
17854;SDS011;9053;53.358;6.382;2022-10-16T10:52:56;7.07;;;2.05;;
17854;SDS011;9053;53.358;6.382;2022-10-16T10:55:36;7.00;;;2.33;;
17854;SDS011;9053;53.358;6.382;2022-10-16T10:58:16;10.70;;;2.97;;
17854;SDS011;9053;53.358;6.382;2022-10-16T11:01:09;7.55;;;2.80;;
17854;SDS011;9053;53.358;6.382;2022-10-16T11:03:43;13.50;;;2.60;;
17854;SDS011;9053;53.358;6.382;2022-10-16T11:06:24;15.57;;;2.65;;
17854;SDS011;9053;53.358;6.382;2022-10-16T11:09:00;12.77;;;2.67;;
17854;SDS011;9053;53.358;6.382;2022-10-16T11:11:40;12.82;;;3.03;;
17854;SDS011;9053;53.358;6.382;2022-10-16T11:14:14;10.20;;;3.20;;
17854;SDS011;9053;53.358;6.382;2022-10-16T11:16:49;10.95;;;2.67;;
17854;SDS011;9053;53.358;6.382;2022-10-16T11:19:27;10.95;;;2.40;;
17854;SDS011;9053;53.358;6.382;2022-10-16T11:22:09;9.48;;;2.58;;
17854;SDS011;9053;53.358;6.382;2022-10-16T11:24:48;14.77;;;2.55;;
17854;SDS011;9053;53.358;6.382;2022-10-16T11:27:23;9.13;;;2.35;;
17854;SDS011;9053;53.358;6.382;2022-10-16T11:29:57;10.35;;;2.63;;
17854;SDS011;9053;53.358;6.382;2022-10-16T11:32:32;9.23;;;2.63;;
17854;SDS011;9053;53.358;6.382;2022-10-16T11:35:10;10.77;;;2.90;;
17854;SDS011;9053;53.358;6.382;2022-10-16T11:37:46;10.40;;;2.28;;
17854;SDS011;9053;53.358;6.382;2022-10-16T11:40:23;12.15;;;2.70;;
17854;SDS011;9053;53.358;6.382;2022-10-16T11:43:02;11.63;;;2.40;;
17854;SDS011;9053;53.358;6.382;2022-10-16T11:45:42;10.57;;;2.38;;
17854;SDS011;9053;53.358;6.382;2022-10-16T11:48:17;10.77;;;2.45;;
17854;SDS011;9053;53.358;6.382;2022-10-16T11:50:56;10.85;;;2.47;;
17854;SDS011;9053;53.358;6.382;2022-10-16T11:53:35;9.90;;;2.30;;
17854;SDS011;9053;53.358;6.382;2022-10-16T11:56:16;10.30;;;2.45;;
17854;SDS011;9053;53.358;6.382;2022-10-16T11:58:51;8.45;;;1.77;;
17854;SDS011;9053;53.358;6.382;2022-10-16T12:01:28;7.45;;;1.83;;
17854;SDS011;9053;53.358;6.382;2022-10-16T12:04:05;7.65;;;1.80;;
17854;SDS011;9053;53.358;6.382;2022-10-16T12:06:45;9.10;;;1.90;;
17854;SDS011;9053;53.358;6.382;2022-10-16T12:09:20;10.95;;;2.00;;
17854;SDS011;9053;53.358;6.382;2022-10-16T12:11:56;8.60;;;2.20;;
17854;SDS011;9053;53.358;6.382;2022-10-16T12:14:39;7.75;;;1.55;;
17854;SDS011;9053;53.358;6.382;2022-10-16T12:17:34;7.05;;;1.80;;
17854;SDS011;9053;53.358;6.382;2022-10-16T12:20:18;6.63;;;1.90;;
17854;SDS011;9053;53.358;6.382;2022-10-16T12:22:57;6.90;;;2.00;;
17854;SDS011;9053;53.358;6.382;2022-10-16T12:25:30;9.70;;;2.47;;
17854;SDS011;9053;53.358;6.382;2022-10-16T12:28:06;7.53;;;2.08;;
17854;SDS011;9053;53.358;6.382;2022-10-16T12:30:52;5.97;;;1.90;;
17854;SDS011;9053;53.358;6.382;2022-10-16T12:33:24;8.15;;;2.08;;
17854;SDS011;9053;53.358;6.382;2022-10-16T12:35:55;6.35;;;2.03;;
17854;SDS011;9053;53.358;6.382;2022-10-16T12:38:28;6.80;;;2.40;;
17854;SDS011;9053;53.358;6.382;2022-10-16T12:41:05;6.40;;;2.13;;
17854;SDS011;9053;53.358;6.382;2022-10-16T12:43:40;9.20;;;2.33;;
17854;SDS011;9053;53.358;6.382;2022-10-16T12:46:22;9.88;;;2.08;;
17854;SDS011;9053;53.358;6.382;2022-10-16T12:49:17;7.55;;;2.08;;
17854;SDS011;9053;53.358;6.382;2022-10-16T12:51:52;6.07;;;1.77;;
17854;SDS011;9053;53.358;6.382;2022-10-16T12:54:23;6.22;;;1.95;;
17854;SDS011;9053;53.358;6.382;2022-10-16T13:00:07;9.80;;;2.40;;
17854;SDS011;9053;53.358;6.382;2022-10-16T13:02:50;9.43;;;2.47;;
17854;SDS011;9053;53.358;6.382;2022-10-16T13:05:41;10.20;;;1.80;;
17854;SDS011;9053;53.358;6.382;2022-10-16T13:08:27;7.85;;;2.03;;
17854;SDS011;9053;53.358;6.382;2022-10-16T13:11:12;6.07;;;1.73;;
17854;SDS011;9053;53.358;6.382;2022-10-16T13:13:54;4.05;;;1.38;;
17854;SDS011;9053;53.358;6.382;2022-10-16T13:16:45;5.13;;;1.58;;
17854;SDS011;9053;53.358;6.382;2022-10-16T13:19:28;6.50;;;1.95;;
17854;SDS011;9053;53.358;6.382;2022-10-16T13:22:05;6.72;;;1.67;;
17854;SDS011;9053;53.358;6.382;2022-10-16T13:24:47;8.75;;;1.60;;
17854;SDS011;9053;53.358;6.382;2022-10-16T13:27:25;5.65;;;1.70;;
17854;SDS011;9053;53.358;6.382;2022-10-16T13:30:10;7.22;;;1.83;;
17854;SDS011;9053;53.358;6.382;2022-10-16T13:32:46;9.95;;;1.80;;
17854;SDS011;9053;53.358;6.382;2022-10-16T13:35:19;7.63;;;1.92;;
17854;SDS011;9053;53.358;6.382;2022-10-16T13:37:51;9.32;;;2.00;;
17854;SDS011;9053;53.358;6.382;2022-10-16T13:40:31;10.30;;;2.30;;
17854;SDS011;9053;53.358;6.382;2022-10-16T13:43:02;5.95;;;1.58;;
17854;SDS011;9053;53.358;6.382;2022-10-16T13:45:31;7.57;;;1.63;;
17854;SDS011;9053;53.358;6.382;2022-10-16T13:48:05;10.48;;;2.83;;
17854;SDS011;9053;53.358;6.382;2022-10-16T13:50:38;7.65;;;1.73;;
17854;SDS011;9053;53.358;6.382;2022-10-16T13:53:10;5.47;;;1.90;;
17854;SDS011;9053;53.358;6.382;2022-10-16T13:55:43;7.05;;;1.70;;
17854;SDS011;9053;53.358;6.382;2022-10-16T13:58:16;8.88;;;2.20;;
17854;SDS011;9053;53.358;6.382;2022-10-16T14:00:53;7.63;;;2.15;;
17854;SDS011;9053;53.358;6.382;2022-10-16T14:03:27;5.78;;;1.65;;
17854;SDS011;9053;53.358;6.382;2022-10-16T14:06:00;9.27;;;1.90;;
17854;SDS011;9053;53.358;6.382;2022-10-16T14:08:31;4.80;;;1.67;;
17854;SDS011;9053;53.358;6.382;2022-10-16T14:11:02;7.00;;;2.20;;
17854;SDS011;9053;53.358;6.382;2022-10-16T14:13:32;6.38;;;1.73;;
17854;SDS011;9053;53.358;6.382;2022-10-16T14:16:07;5.90;;;2.05;;
17854;SDS011;9053;53.358;6.382;2022-10-16T14:18:41;7.70;;;1.98;;
17854;SDS011;9053;53.358;6.382;2022-10-16T14:21:16;10.13;;;2.17;;
17854;SDS011;9053;53.358;6.382;2022-10-16T14:23:46;6.28;;;2.08;;
17854;SDS011;9053;53.358;6.382;2022-10-16T14:26:16;7.88;;;2.08;;
17854;SDS011;9053;53.358;6.382;2022-10-16T14:28:49;5.47;;;1.73;;
17854;SDS011;9053;53.358;6.382;2022-10-16T14:31:31;7.70;;;1.88;;
17854;SDS011;9053;53.358;6.382;2022-10-16T14:37:14;9.07;;;2.38;;
17854;SDS011;9053;53.358;6.382;2022-10-16T14:39:53;4.68;;;1.85;;
17854;SDS011;9053;53.358;6.382;2022-10-16T14:42:24;9.43;;;2.28;;
17854;SDS011;9053;53.358;6.382;2022-10-16T14:45:00;8.82;;;2.45;;
17854;SDS011;9053;53.358;6.382;2022-10-16T14:47:30;9.07;;;2.45;;
17854;SDS011;9053;53.358;6.382;2022-10-16T14:50:04;10.68;;;2.45;;
17854;SDS011;9053;53.358;6.382;2022-10-16T14:52:37;5.38;;;1.67;;
17854;SDS011;9053;53.358;6.382;2022-10-16T14:55:07;8.15;;;2.80;;
17854;SDS011;9053;53.358;6.382;2022-10-16T14:57:38;4.78;;;1.70;;
17854;SDS011;9053;53.358;6.382;2022-10-16T15:00:10;7.32;;;2.08;;
17854;SDS011;9053;53.358;6.382;2022-10-16T15:02:45;6.97;;;1.92;;
17854;SDS011;9053;53.358;6.382;2022-10-16T15:05:19;6.78;;;2.03;;
17854;SDS011;9053;53.358;6.382;2022-10-16T15:08:01;5.10;;;2.33;;
17854;SDS011;9053;53.358;6.382;2022-10-16T15:10:47;8.93;;;2.35;;
17854;SDS011;9053;53.358;6.382;2022-10-16T15:13:17;5.68;;;1.85;;
17854;SDS011;9053;53.358;6.382;2022-10-16T15:15:47;5.85;;;1.92;;
17854;SDS011;9053;53.358;6.382;2022-10-16T15:18:18;4.20;;;1.60;;
17854;SDS011;9053;53.358;6.382;2022-10-16T15:20:51;4.72;;;1.80;;
17854;SDS011;9053;53.358;6.382;2022-10-16T15:23:21;6.63;;;2.00;;
17854;SDS011;9053;53.358;6.382;2022-10-16T15:25:52;5.13;;;1.85;;
17854;SDS011;9053;53.358;6.382;2022-10-16T15:28:24;7.63;;;1.75;;
17854;SDS011;9053;53.358;6.382;2022-10-16T15:30:57;7.10;;;1.88;;
17854;SDS011;9053;53.358;6.382;2022-10-16T15:33:27;5.63;;;1.77;;
17854;SDS011;9053;53.358;6.382;2022-10-16T15:36:09;3.25;;;1.75;;
17854;SDS011;9053;53.358;6.382;2022-10-16T15:38:39;5.38;;;1.77;;
17854;SDS011;9053;53.358;6.382;2022-10-16T15:41:10;3.35;;;1.63;;
17854;SDS011;9053;53.358;6.382;2022-10-16T15:43:54;3.92;;;2.20;;
17854;SDS011;9053;53.358;6.382;2022-10-16T15:46:27;3.85;;;1.48;;